Schertz, Texas
Current Conditions -  °F | °C
As of 12:58 AM on Sunday 26 Oct 2014 (Local Time) from KRND Reporting Station
Clear Clear  
Wind Chill: 65°   Ceiling: Unl
Heat Index: 65°   Visibility: 10mi
Dew Point: 58°   Wind: 3mph
Humidity: 78%   Direction: 180°S
Pressure: 30.09"   Gusts: NA
Location:  29.57°N, 98.27°W
Report Text: KRND 260558Z AUTO 18003KT 10SM CLR 18/15 A3009 RMK AO2 SLP183 T01830145 10255 20183 403090153 58002
Loading
Personal Weather Stations






























Interactive Weather Map
Tropical Storm Tracking
New forecast layout! Learn more

10-Day Weather Forecast

Advertisements
Track Severe Weather on mobile